Observations for Trim Market St
| Time | AQI | Temp °C | Hum % | Pres Pa | CO μg/m³ | H₂S μg/m³ | NO μg/m³ | NO₂ μg/m³ | O₃ μg/m³ | SO₂ μg/m³ | PM1 μg/m³ | PM2.5 μg/m³ | PM10 μg/m³ |
|---|---|---|---|---|---|---|---|---|---|---|---|---|---|
| Thursday 30 April 2026 | |||||||||||||
| 13:53 | 1 | 27.8 | 33 | 65,837 | 0.16 | 0 | 0 | 3.82 | 31.77 | 0 | 0.71 | 4.8 | 5.28 |
| 13:49 | 1 | 27 | 34 | 65,770 | 0.26 | 0 | 0.36 | 17.46 | 18.16 | 0 | 2.85 | 5.85 | 7.53 |
| 13:48 | 1 | 26.9 | 33 | 65,742 | 0.08 | 0 | 0 | 6.91 | 34.86 | 0 | 2.14 | 5.86 | 6.68 |
| 13:45 | 1 | 26.6 | 33 | 65,770 | 0.32 | 0 | 0.38 | 16.29 | 18.42 | 0 | 2.14 | 6.39 | 7.52 |
| 13:44 | 1 | 26.5 | 33 | 65,744 | 0.16 | 0 | 0 | 1.74 | 28.88 | 0 | 2.14 | 4.79 | 5.27 |
| 13:42 | 1 | 26.5 | 33 | 65,795 | 0.14 | 0 | 0 | 3.53 | 24 | 0 | 1.43 | 5.32 | 5.85 |
| 13:41 | 1 | 26.5 | 34 | 65,787 | 0.17 | 0 | 0 | 2.2 | 16.4 | 0 | 2.14 | 6.39 | 7.53 |
| 13:31 | 1 | 25.9 | 35 | 65,680 | 0.27 | 0 | 0 | 2.97 | 23.07 | 0 | 2.14 | 6.3 | 8.36 |
| 13:30 | 1 | 25.9 | 35 | 65,674 | 0.13 | 0 | 0 | 4.36 | 34.04 | 0 | 2.85 | 6.83 | 9.19 |
| 13:29 | 1 | 25.8 | 36 | 65,661 | 0.09 | 0 | 0 | 4.06 | 36.42 | 0 | 2.85 | 6.82 | 10.02 |
| 13:28 | 1 | 25.6 | 36 | 65,647 | 0.17 | 0 | 0 | 1.61 | 22.55 | 0 | 2.85 | 6.82 | 9.19 |
| 13:27 | 1 | 25.6 | 36 | 65,657 | 1.12 | 0 | 0 | 5.68 | 39.01 | 0 | 2.85 | 6.8 | 7.53 |
| 13:26 | 1 | 25.4 | 36 | 65,666 | 0.3 | 0 | 0 | 1.61 | 22.22 | 0 | 2.85 | 6.79 | 9.18 |
| 13:25 | 1 | 25.2 | 36 | 65,655 | 0.16 | 0 | 0 | 4.96 | 21.29 | 0 | 3.56 | 7.32 | 8.35 |
| 13:24 | 1 | 25.2 | 36 | 65,666 | 0.08 | 0 | 0 | 7.86 | 40.44 | 0 | 2.85 | 6.25 | 11.67 |
| 13:23 | 1 | 25.1 | 36 | 65,657 | 0.06 | 0 | 0 | 9.9 | 41.4 | 0 | 1.43 | 5.73 | 10.01 |
| 13:22 | 1 | 25 | 36 | 65,643 | 0.05 | 0 | 0 | 2.21 | 26.46 | 0 | 2.14 | 5.72 | 8.35 |
| 13:21 | 1 | 24.9 | 36 | 65,663 | 0.08 | 0 | 0 | 1.62 | 26.88 | 0 | 3.56 | 6.78 | 9.18 |
| 13:20 | 1 | 24.9 | 36 | 65,653 | 0.05 | 0 | 0 | 3.29 | 34.87 | 0 | 3.56 | 7.3 | 8.35 |
| 13:19 | 1 | 24.8 | 36 | 65,645 | 0.08 | 0 | 0 | 3.52 | 33.18 | 0 | 3.56 | 7.3 | 10.83 |